Time;durP1;ratioP1;P1;durP2;ratioP2;P2;SDS_P1;SDS_P2;PMS_P1;PMS_P2;Temp;Humidity;BMP_temperature;BMP_pressure;BME280_temperature;BME280_humidity;BME280_pressure;Samples;Min_cycle;Max_cycle;Signal;HPM_P1;HPM_P2
2023/08/20 00:00:20;;;;;;;17.48;12.38;;;;;;;22.16;100.00;93092.66;5064884;28;20489;-79
2023/08/20 00:02:47;;;;;;;18.67;12.65;;;;;;;22.18;100.00;93097.66;5063395;28;20041;-79
2023/08/20 00:05:13;;;;;;;23.88;12.85;;;;;;;22.16;100.00;93097.22;5063437;28;20029;-79
2023/08/20 00:07:39;;;;;;;20.90;12.70;;;;;;;22.14;100.00;93089.56;5028083;28;20034;-79
2023/08/20 00:10:06;;;;;;;22.20;12.88;;;;;;;22.13;100.00;93085.31;5049279;28;20029;-79
2023/08/20 00:12:32;;;;;;;17.80;13.20;;;;;;;22.11;100.00;93089.47;5028808;28;20044;-79
2023/08/20 00:15:04;;;;;;;19.40;13.10;;;;;;;22.11;100.00;93092.91;5064160;28;20028;-79
2023/08/20 00:17:31;;;;;;;22.35;13.73;;;;;;;22.11;100.00;93086.78;5062422;28;20033;-80
2023/08/20 00:19:57;;;;;;;24.92;13.50;;;;;;;22.09;100.00;93089.81;5063587;28;20029;-79
2023/08/20 00:22:24;;;;;;;19.50;14.05;;;;;;;22.08;100.00;93090.91;5045674;28;20563;-79
2023/08/20 00:24:54;;;;;;;22.55;13.77;;;;;;;22.06;100.00;93092.38;5049534;28;20037;-79
2023/08/20 00:27:20;;;;;;;19.30;14.18;;;;;;;22.05;100.00;93094.28;5048623;28;20040;-79
2023/08/20 00:29:46;;;;;;;19.83;13.52;;;;;;;22.03;100.00;93096.50;5046461;28;20116;-79
2023/08/20 00:32:12;;;;;;;20.42;14.55;;;;;;;22.00;100.00;93091.88;5042429;28;20140;-79
2023/08/20 00:34:37;;;;;;;25.20;14.05;;;;;;;21.96;100.00;93085.69;5044855;28;20040;-79
2023/08/20 00:37:03;;;;;;;22.05;14.50;;;;;;;21.95;100.00;93092.09;5063734;28;20041;-79
2023/08/20 00:39:29;;;;;;;20.23;14.25;;;;;;;21.95;100.00;93089.44;5046932;28;20047;-79
2023/08/20 00:41:55;;;;;;;24.80;15.15;;;;;;;21.92;100.00;93085.56;5061939;28;20041;-80
2023/08/20 00:44:21;;;;;;;24.88;14.43;;;;;;;21.95;100.00;93092.91;5032433;28;20099;-79
2023/08/20 00:46:47;;;;;;;21.80;13.95;;;;;;;21.95;100.00;93094.78;5062363;28;20029;-78
2023/08/20 00:49:13;;;;;;;21.58;15.30;;;;;;;21.92;100.00;93092.81;5063868;28;20402;-79
2023/08/20 00:51:39;;;;;;;20.05;15.10;;;;;;;21.90;100.00;93090.47;5045623;28;20041;-79
2023/08/20 00:54:06;;;;;;;27.15;14.75;;;;;;;21.90;100.00;93095.03;5045190;28;20032;-79
2023/08/20 00:56:32;;;;;;;20.42;14.98;;;;;;;21.89;100.00;93090.84;5067287;28;20045;-79
2023/08/20 00:58:58;;;;;;;28.70;15.70;;;;;;;21.88;100.00;93094.59;5072925;28;20041;-79
2023/08/20 01:01:24;;;;;;;24.15;15.05;;;;;;;21.83;100.00;93093.72;5063631;28;20032;-79
2023/08/20 01:03:50;;;;;;;26.08;16.33;;;;;;;21.84;100.00;93094.50;5063272;28;20027;-78
2023/08/20 01:06:35;;;;;;;28.35;16.60;;;;;;;21.82;100.00;93089.53;5081127;28;20035;-79
2023/08/20 01:09:43;;;;;;;22.75;16.25;;;;;;;21.82;100.00;93092.19;5080823;28;20040;-79
2023/08/20 01:12:10;;;;;;;25.55;16.38;;;;;;;21.82;100.00;93094.84;5068147;28;20424;-79
2023/08/20 01:14:35;;;;;;;22.30;16.33;;;;;;;21.81;100.00;93101.28;5080830;28;20021;-79
2023/08/20 01:17:01;;;;;;;21.73;16.38;;;;;;;21.81;100.00;93103.94;5081718;28;20490;-79
2023/08/20 01:19:27;;;;;;;32.10;17.35;;;;;;;21.82;100.00;93100.19;5090718;28;20297;-79
2023/08/20 01:22:05;;;;;;;28.02;16.17;;;;;;;21.81;100.00;93101.28;5101793;28;20035;-79
2023/08/20 01:24:30;;;;;;;23.25;16.40;;;;;;;21.80;100.00;93105.09;5087020;28;20033;-79
2023/08/20 01:26:59;;;;;;;29.10;17.30;;;;;;;21.78;100.00;93101.97;5081154;28;20096;-79
2023/08/20 01:29:25;;;;;;;27.95;16.50;;;;;;;21.77;100.00;93103.09;5080439;28;20036;-79
2023/08/20 01:31:53;;;;;;;25.58;16.40;;;;;;;21.77;100.00;93108.44;5075900;28;20397;-79
2023/08/20 01:34:18;;;;;;;25.08;17.00;;;;;;;21.75;100.00;93112.53;5082766;28;20044;-79
2023/08/20 01:36:44;;;;;;;27.55;16.50;;;;;;;21.73;100.00;93107.56;5082827;28;20021;-79
2023/08/20 01:39:10;;;;;;;24.40;17.63;;;;;;;21.69;100.00;93103.25;5082386;28;20029;-79
2023/08/20 01:41:35;;;;;;;24.75;16.98;;;;;;;21.71;100.00;93109.78;5083630;28;20412;-79
2023/08/20 01:44:01;;;;;;;25.42;15.85;;;;;;;21.69;100.00;93106.69;5080897;28;20042;-78
2023/08/20 01:46:26;;;;;;;25.17;16.90;;;;;;;21.68;100.00;93105.13;5081264;28;20020;-79
2023/08/20 01:48:52;;;;;;;27.38;17.83;;;;;;;21.66;100.00;93101.25;5064871;28;20044;-79
2023/08/20 01:51:18;;;;;;;24.30;17.17;;;;;;;21.62;100.00;93101.94;5081927;28;20040;-80
2023/08/20 01:53:43;;;;;;;26.13;17.00;;;;;;;21.59;100.00;93101.84;5080872;28;20044;-79
2023/08/20 01:56:13;;;;;;;28.63;17.52;;;;;;;21.58;100.00;93101.06;5079938;28;20091;-79
2023/08/20 01:58:39;;;;;;;30.30;18.52;;;;;;;21.57;100.00;93107.53;5079769;28;20024;-79
2023/08/20 02:01:05;;;;;;;25.15;17.88;;;;;;;21.55;100.00;93107.09;5077463;28;20064;-79
2023/08/20 02:03:31;;;;;;;30.20;18.15;;;;;;;21.54;100.00;93102.84;5062935;28;20037;-79
2023/08/20 02:05:56;;;;;;;26.40;17.70;;;;;;;21.52;100.00;93102.41;5078274;28;20115;-79
2023/08/20 02:08:22;;;;;;;30.75;18.38;;;;;;;21.50;100.00;93099.31;5081096;28;20544;-79
2023/08/20 02:10:48;;;;;;;29.75;18.58;;;;;;;21.48;100.00;93096.25;5060914;28;20071;-79
2023/08/20 02:13:14;;;;;;;32.70;18.27;;;;;;;21.44;100.00;93103.34;5060115;28;20290;-79
2023/08/20 02:15:39;;;;;;;33.42;19.30;;;;;;;21.44;100.00;93100.69;5065617;28;20078;-79
2023/08/20 02:18:05;;;;;;;31.38;18.65;;;;;;;21.41;100.00;93096.03;5083781;28;20311;-79
2023/08/20 02:20:31;;;;;;;30.70;18.10;;;;;;;21.40;100.00;93105.91;5085873;28;20048;-79
2023/08/20 02:22:56;;;;;;;29.13;17.80;;;;;;;21.40;100.00;93105.09;5086952;28;20041;-79
2023/08/20 02:25:24;;;;;;;28.67;17.90;;;;;;;21.38;100.00;93102.78;5085095;28;20039;-78
2023/08/20 02:27:54;;;;;;;29.40;19.33;;;;;;;21.38;100.00;93100.13;5086432;28;20104;-79
2023/08/20 02:30:19;;;;;;;31.40;20.48;;;;;;;21.36;100.00;93099.69;5086743;28;20021;-79
2023/08/20 02:32:45;;;;;;;29.67;19.27;;;;;;;21.36;100.00;93102.34;5087267;28;20051;-80
2023/08/20 02:35:12;;;;;;;28.35;18.92;;;;;;;21.34;100.00;93107.22;5086693;28;20036;-79
2023/08/20 02:37:41;;;;;;;33.13;19.42;;;;;;;21.34;100.00;93107.22;5085026;28;20072;-79
2023/08/20 02:40:08;;;;;;;27.35;18.33;;;;;;;21.31;100.00;93107.91;5084813;28;20032;-79
2023/08/20 02:42:33;;;;;;;29.92;18.65;;;;;;;21.31;100.00;93107.13;5085241;28;20037;-80
2023/08/20 02:44:59;;;;;;;28.10;18.45;;;;;;;21.29;100.00;93104.81;5084559;28;20032;-79
2023/08/20 02:47:25;;;;;;;27.08;18.15;;;;;;;21.27;100.00;93111.59;5084916;28;20037;-79
2023/08/20 02:49:51;;;;;;;35.05;19.20;;;;;;;21.24;100.00;93104.28;5085893;28;20025;-80
2023/08/20 02:52:16;;;;;;;29.63;18.27;;;;;;;21.23;100.00;93103.47;5082809;28;20059;-79
2023/08/20 02:54:42;;;;;;;34.70;19.92;;;;;;;21.20;100.00;93101.50;5084839;28;20037;-79
2023/08/20 02:57:07;;;;;;;32.60;19.83;;;;;;;21.19;100.00;93105.28;5102509;28;20072;-79
2023/08/20 02:59:34;;;;;;;25.17;19.08;;;;;;;21.17;100.00;93096.88;5086148;28;20051;-79
2023/08/20 03:01:59;;;;;;;32.03;19.25;;;;;;;21.16;100.00;93105.94;5073418;28;20127;-79
2023/08/20 03:04:25;;;;;;;29.33;19.83;;;;;;;21.13;100.00;93095.97;5070511;28;20092;-79
2023/08/20 03:06:51;;;;;;;28.45;18.55;;;;;;;21.12;100.00;93099.75;5067618;28;20036;-79
2023/08/20 03:09:16;;;;;;;31.25;18.65;;;;;;;21.11;100.00;93100.88;5084965;28;20394;-79
2023/08/20 03:11:42;;;;;;;27.52;18.45;;;;;;;21.09;100.00;93098.53;5085046;28;20383;-79
2023/08/20 03:14:08;;;;;;;35.05;18.10;;;;;;;21.07;100.00;93095.44;5085564;28;20054;-79
2023/08/20 03:16:33;;;;;;;34.95;18.73;;;;;;;21.02;100.00;93085.03;5085362;28;20033;-79
2023/08/20 03:18:59;;;;;;;25.70;18.77;;;;;;;21.03;100.00;93088.47;5068392;28;20111;-79
2023/08/20 03:21:25;;;;;;;25.30;17.80;;;;;;;20.98;100.00;93090.25;5094912;28;20036;-79
2023/08/20 03:23:51;;;;;;;24.00;17.67;;;;;;;20.98;100.00;93090.25;5101293;28;20578;-79
2023/08/20 03:26:16;;;;;;;25.63;17.85;;;;;;;21.00;100.00;93088.00;5088016;28;20032;-79
2023/08/20 03:28:42;;;;;;;26.48;19.67;;;;;;;20.97;100.00;93091.34;5086951;28;20083;-80
2023/08/20 03:31:08;;;;;;;32.80;19.23;;;;;;;20.95;100.00;93084.81;5087085;28;20120;-79
2023/08/20 03:33:38;;;;;;;25.08;18.23;;;;;;;20.95;100.00;93092.81;5062675;28;20028;-79
2023/08/20 03:36:03;;;;;;;31.80;18.38;;;;;;;20.91;100.00;93091.94;5064926;28;20044;-79
2023/08/20 03:38:29;;;;;;;28.80;19.25;;;;;;;20.92;100.00;93099.59;5074527;28;20039;-79
2023/08/20 03:40:55;;;;;;;27.65;18.38;;;;;;;20.88;100.00;93088.06;5105672;28;20046;-79
2023/08/20 03:43:20;;;;;;;24.67;18.63;;;;;;;20.91;100.00;93095.34;5074938;28;20094;-79
2023/08/20 03:45:51;;;;;;;25.83;18.40;;;;;;;20.90;100.00;93095.72;5083598;28;20037;-79
2023/08/20 03:48:17;;;;;;;25.60;18.85;;;;;;;20.89;100.00;93097.56;5066513;28;20107;-79
2023/08/20 03:50:42;;;;;;;27.10;19.30;;;;;;;20.88;100.00;93097.94;5068059;28;20241;-79
2023/08/20 03:53:08;;;;;;;30.20;18.33;;;;;;;20.90;100.00;93103.69;5066104;28;20056;-79
2023/08/20 03:55:34;;;;;;;28.20;19.08;;;;;;;20.88;100.00;93093.38;5051229;28;20051;-79
2023/08/20 03:57:59;;;;;;;28.23;18.23;;;;;;;20.87;100.00;93099.03;5084079;28;20041;-79
2023/08/20 04:00:25;;;;;;;34.15;19.20;;;;;;;20.86;100.00;93108.13;5083866;28;20040;-79
2023/08/20 04:02:50;;;;;;;33.15;19.20;;;;;;;20.86;100.00;93108.91;5082187;28;20044;-79
2023/08/20 04:05:16;;;;;;;29.63;19.58;;;;;;;20.85;100.00;93109.22;5083099;28;20028;-78
2023/08/20 04:07:41;;;;;;;29.25;18.52;;;;;;;20.87;100.00;93112.31;5083003;28;20032;-79
2023/08/20 04:10:08;;;;;;;24.02;18.50;;;;;;;20.82;100.00;93102.69;5083705;28;20425;-79
2023/08/20 04:12:35;;;;;;;31.23;18.58;;;;;;;20.82;100.00;93113.34;5083138;28;20033;-79
2023/08/20 04:15:01;;;;;;;36.63;19.20;;;;;;;20.83;100.00;93112.25;5084120;28;20063;-79
2023/08/20 04:17:26;;;;;;;33.75;19.88;;;;;;;20.82;100.00;93120.53;5083411;28;20036;-79
2023/08/20 04:19:52;;;;;;;27.10;18.92;;;;;;;20.78;100.00;93120.44;5082360;28;20082;-79
2023/08/20 04:22:17;;;;;;;33.22;19.05;;;;;;;20.75;100.00;93121.09;5082675;28;20032;-79
2023/08/20 04:24:43;;;;;;;25.75;18.70;;;;;;;20.79;100.00;93124.66;5083059;28;20029;-79
2023/08/20 04:27:08;;;;;;;25.65;17.52;;;;;;;20.77;100.00;93119.66;5083119;28;20047;-79
2023/08/20 04:29:36;;;;;;;25.00;18.25;;;;;;;20.76;100.00;93120.78;5066441;28;20113;-79
2023/08/20 04:32:01;;;;;;;33.22;19.65;;;;;;;20.73;100.00;93120.66;5083602;28;20024;-79
2023/08/20 04:34:27;;;;;;;30.48;18.25;;;;;;;20.76;100.00;93126.09;5082604;28;20025;-79
2023/08/20 04:36:54;;;;;;;32.65;18.30;;;;;;;20.73;100.00;93120.66;5082763;28;20071;-79
2023/08/20 04:39:20;;;;;;;30.42;17.67;;;;;;;20.73;100.00;93120.66;5083347;28;20036;-79
2023/08/20 04:41:49;;;;;;;25.83;17.52;;;;;;;20.73;100.00;93120.66;5080310;28;20118;-79
2023/08/20 04:44:17;;;;;;;26.60;17.08;;;;;;;20.74;100.00;93119.56;5079776;28;20029;-80
2023/08/20 04:46:44;;;;;;;27.65;17.58;;;;;;;20.74;100.00;93132.88;5063970;28;20476;-79
2023/08/20 04:49:10;;;;;;;26.15;19.17;;;;;;;20.74;100.00;93127.53;5079395;28;20378;-79
2023/08/20 04:51:37;;;;;;;30.65;17.60;;;;;;;20.75;100.00;93131.75;5078813;28;20040;-79
2023/08/20 04:54:03;;;;;;;29.25;17.58;;;;;;;20.76;100.00;93139.41;5079506;28;20031;-79
2023/08/20 04:56:28;;;;;;;28.85;18.88;;;;;;;20.78;100.00;93128.41;5079222;28;20555;-79
2023/08/20 04:58:55;;;;;;;32.70;18.55;;;;;;;20.79;100.00;93129.97;5063068;28;20043;-79
2023/08/20 05:01:40;;;;;;;25.70;17.52;;;;;;;20.80;100.00;93131.50;5080829;28;20045;-80
2023/08/20 05:04:07;;;;;;;26.67;18.63;;;;;;;20.82;100.00;93131.19;5078943;28;20051;-80
2023/08/20 05:06:32;;;;;;;30.38;18.98;;;;;;;20.84;100.00;93136.94;5080537;28;20036;-79
2023/08/20 05:08:58;;;;;;;26.70;18.17;;;;;;;20.86;100.00;93134.72;5063457;28;20060;-79
2023/08/20 05:11:23;;;;;;;26.23;18.58;;;;;;;20.92;100.00;93138.72;5081473;28;20025;-79
2023/08/20 05:13:49;;;;;;;29.55;18.50;;;;;;;20.94;100.00;93139.94;5079822;28;20279;-79
2023/08/20 05:16:16;;;;;;;29.27;18.42;;;;;;;21.00;100.00;93146.56;5080362;28;20459;-79
2023/08/20 05:18:42;;;;;;;24.27;17.95;;;;;;;21.04;100.00;93143.25;5080381;28;20044;-79
2023/08/20 05:21:08;;;;;;;27.67;17.80;;;;;;;21.10;100.00;93144.59;5079669;28;20373;-79
2023/08/20 05:23:35;;;;;;;29.50;18.23;;;;;;;21.17;100.00;93150.09;5079790;28;20486;-78
2023/08/20 05:26:01;;;;;;;31.73;19.13;;;;;;;21.24;100.00;93150.31;5080078;28;20046;-79
2023/08/20 05:28:26;;;;;;;26.95;18.58;;;;;;;21.34;100.00;93154.38;5079926;28;20046;-79
2023/08/20 05:30:57;;;;;;;28.13;17.85;;;;;;;21.44;100.00;93148.63;5079270;28;20035;-79
2023/08/20 05:33:23;;;;;;;25.83;17.08;;;;;;;21.55;100.00;93151.59;5080397;28;20139;-79
2023/08/20 05:35:49;;;;;;;23.08;16.10;;;;;;;21.66;100.00;93160.66;5079358;28;20024;-80
2023/08/20 05:38:16;;;;;;;31.42;17.25;;;;;;;21.77;100.00;93156.41;5079467;28;20091;-78
2023/08/20 05:40:42;;;;;;;25.23;17.05;;;;;;;21.90;100.00;93156.34;5066291;28;20071;-79
2023/08/20 05:43:08;;;;;;;22.42;17.80;;;;;;;22.01;100.00;93160.81;5059896;28;20040;-79
2023/08/20 05:45:34;;;;;;;25.63;17.35;;;;;;;22.10;100.00;93163.34;5059671;28;20025;-79
2023/08/20 05:48:00;;;;;;;24.30;17.20;;;;;;;22.21;100.00;93167.09;5065242;28;20092;-80
2023/08/20 05:50:25;;;;;;;23.20;16.38;;;;;;;22.36;100.00;93175.44;5078797;28;20036;-79
2023/08/20 05:52:52;;;;;;;24.63;16.08;;;;;;;22.46;100.00;93169.59;5079319;28;20375;-79
2023/08/20 05:55:18;;;;;;;26.10;16.13;;;;;;;22.59;100.00;93168.41;5072200;28;20055;-79
2023/08/20 05:57:44;;;;;;;25.20;16.17;;;;;;;22.74;100.00;93174.06;5058884;28;20108;-79
2023/08/20 06:00:10;;;;;;;22.73;15.68;;;;;;;22.88;100.00;93174.41;5059535;28;20025;-79
2023/08/20 06:02:39;;;;;;;23.00;15.07;;;;;;;23.04;100.00;93169.84;5060544;28;20052;-79
2023/08/20 06:05:05;;;;;;;23.58;16.17;;;;;;;23.20;100.00;93174.41;5057894;28;20037;-80
2023/08/20 06:07:31;;;;;;;27.95;14.93;;;;;;;23.35;100.00;93173.59;5059653;28;20368;-79
2023/08/20 06:09:57;;;;;;;22.13;14.05;;;;;;;23.51;100.00;93170.84;5075579;28;20083;-79
2023/08/20 06:12:23;;;;;;;21.85;14.15;;;;;;;23.68;100.00;93173.09;5058949;28;20080;-79
2023/08/20 06:14:49;;;;;;;17.33;13.75;;;;;;;23.81;100.00;93171.09;5062129;28;20051;-79
2023/08/20 06:17:15;;;;;;;22.65;14.57;;;;;;;23.99;100.00;93170.69;5060239;28;20033;-79
2023/08/20 06:19:41;;;;;;;22.92;14.02;;;;;;;24.37;100.00;93175.19;5060700;28;20021;-80
2023/08/20 06:22:07;;;;;;;22.15;14.25;;;;;;;25.08;100.00;93175.59;5061584;28;20057;-80
2023/08/20 06:24:33;;;;;;;21.02;14.18;;;;;;;25.75;100.00;93180.34;5061004;28;20045;-80
2023/08/20 06:26:59;;;;;;;21.13;13.68;;;;;;;26.46;100.00;93176.16;5062013;28;20036;-80
2023/08/20 06:29:24;;;;;;;18.85;13.65;;;;;;;27.16;100.00;93185.19;5060015;28;20033;-80
2023/08/20 06:31:50;;;;;;;20.48;12.25;;;;;;;27.76;100.00;93181.31;5060268;28;20065;-80
2023/08/20 06:34:16;;;;;;;17.08;12.02;;;;;;;28.34;100.00;93185.78;5060060;28;20033;-81
2023/08/20 06:36:42;;;;;;;18.98;12.40;;;;;;;28.36;100.00;93180.78;5061882;28;20059;-80
2023/08/20 06:39:08;;;;;;;17.23;12.15;;;;;;;28.42;100.00;93181.19;5058386;28;20124;-79
2023/08/20 06:41:35;;;;;;;21.52;12.18;;;;;;;28.69;100.00;93183.53;5053252;28;20486;-80
2023/08/20 06:44:01;;;;;;;17.10;11.88;;;;;;;28.92;100.00;93188.56;5055441;28;20052;-82
2023/08/20 06:46:28;;;;;;;17.92;11.85;;;;;;;28.92;100.00;93185.88;5055148;28;20033;-80
2023/08/20 06:48:54;;;;;;;17.98;13.02;;;;;;;28.64;100.00;93182.78;5054645;28;20024;-81
2023/08/20 06:51:21;;;;;;;19.17;12.95;;;;;;;29.12;100.00;93176.28;5054049;28;20068;-80
2023/08/20 06:53:48;;;;;;;17.77;12.60;;;;;;;29.32;100.00;93178.53;5060144;28;20036;-80
2023/08/20 06:56:13;;;;;;;25.80;13.43;;;;;;;29.27;100.00;93183.19;5060566;28;20041;-79
2023/08/20 06:58:41;;;;;;;21.20;13.63;;;;;;;29.05;100.00;93182.41;5042862;28;20629;-79
2023/08/20 07:01:07;;;;;;;25.67;13.77;;;;;;;28.92;100.00;93178.56;5041277;28;20168;-79
2023/08/20 07:03:38;;;;;;;19.48;12.07;;;;;;;28.30;100.00;93182.28;5061978;28;20032;-80
2023/08/20 07:06:05;;;;;;;17.63;12.07;;;;;;;28.02;100.00;93185.69;5068698;28;20025;-80
2023/08/20 07:08:30;;;;;;;19.52;11.75;;;;;;;27.96;100.00;93182.56;5062261;28;20035;-79
2023/08/20 07:10:58;;;;;;;20.42;11.60;;;;;;;27.89;100.00;93179.88;5028206;28;20029;-80
2023/08/20 07:13:23;;;;;;;16.92;11.23;;;;;;;27.80;100.00;93172.13;5070433;28;20028;-79
2023/08/20 07:15:50;;;;;;;19.70;13.10;;;;;;;27.80;100.00;93176.72;5057826;28;20063;-80
2023/08/20 07:18:15;;;;;;;18.95;11.95;;;;;;;27.61;100.00;93177.81;5064798;28;20040;-80
2023/08/20 07:20:43;;;;;;;22.30;12.93;;;;;;;27.36;100.00;93173.06;5062879;28;20033;-80
2023/08/20 07:23:09;;;;;;;21.35;13.82;;;;;;;27.35;100.00;93176.13;5059966;28;20029;-79
2023/08/20 07:25:38;;;;;;;23.90;12.27;;;;;;;27.60;100.00;93168.94;5051012;28;20056;-79
2023/08/20 07:28:08;;;;;;;21.38;11.85;;;;;;;27.25;100.00;93174.16;5052092;28;20394;-79
2023/08/20 07:30:35;;;;;;;18.98;12.82;;;;;;;26.87;100.00;93176.91;5055321;28;20033;-79
2023/08/20 07:33:02;;;;;;;21.75;12.52;;;;;;;26.80;100.00;93176.88;5074928;28;20020;-80
2023/08/20 07:35:28;;;;;;;20.40;12.43;;;;;;;26.99;100.00;93173.16;5055242;28;20090;-81
2023/08/20 07:37:53;;;;;;;22.25;12.40;;;;;;;26.89;100.00;93173.88;5054989;28;20108;-83
2023/08/20 07:40:19;;;;;;;17.85;12.60;;;;;;;26.52;100.00;93174.66;5054437;28;20037;-82
2023/08/20 07:42:45;;;;;;;23.30;13.02;;;;;;;26.46;100.00;93178.84;5050871;28;20120;-81
2023/08/20 07:45:13;;;;;;;21.63;13.93;;;;;;;26.68;100.00;93175.25;5053909;28;20588;-82
2023/08/20 07:47:41;;;;;;;23.10;14.27;;;;;;;26.82;100.00;93176.47;5039315;28;20033;-82
2023/08/20 07:50:07;;;;;;;22.63;13.32;;;;;;;27.07;100.00;93187.44;5044930;28;20544;-81
2023/08/20 07:52:33;;;;;;;22.23;12.93;;;;;;;27.06;100.00;93183.94;5057021;28;20037;-81
2023/08/20 07:54:58;;;;;;;22.55;12.75;;;;;;;27.04;100.00;93180.09;5056410;28;20300;-81
2023/08/20 07:57:24;;;;;;;21.20;12.55;;;;;;;26.92;100.00;93183.84;5057614;28;20039;-81
2023/08/20 07:59:50;;;;;;;31.48;14.05;;;;;;;26.92;100.00;93181.16;5075985;28;20032;-81
2023/08/20 08:02:16;;;;;;;19.67;13.00;;;;;;;26.78;100.00;93185.28;5057033;28;20028;-81
2023/08/20 08:04:42;;;;;;;21.38;12.80;;;;;;;26.64;100.00;93192.44;5074642;28;20390;-80
2023/08/20 08:07:09;;;;;;;19.38;11.93;;;;;;;26.73;100.00;93187.56;5064974;28;20388;-81
2023/08/20 08:09:34;;;;;;;19.80;13.15;;;;;;;26.79;100.00;93194.09;5064279;28;20080;-81
2023/08/20 08:12:01;;;;;;;20.83;12.25;;;;;;;26.95;100.00;93193.84;5074986;28;20109;-81
2023/08/20 08:14:27;;;;;;;21.70;12.98;;;;;;;26.52;100.00;93182.72;5078109;28;20123;-81
2023/08/20 08:16:53;;;;;;;19.75;12.13;;;;;;;26.74;100.00;93189.84;5072495;28;20124;-81
2023/08/20 08:19:19;;;;;;;18.90;12.35;;;;;;;26.96;100.00;93195.41;5074569;28;20041;-81
2023/08/20 08:21:46;;;;;;;17.45;12.85;;;;;;;27.00;100.00;93190.84;5056892;28;20035;-80
2023/08/20 08:28:09;;;;;;;22.05;14.45;;;;;;;27.11;100.00;93190.88;5075055;28;20498;-80
2023/08/20 08:30:34;;;;;;;18.13;13.23;;;;;;;27.15;100.00;93189.00;5073110;28;20305;-79
2023/08/20 08:33:03;;;;;;;18.42;11.88;;;;;;;27.20;100.00;93192.16;5049492;28;20032;-80
2023/08/20 08:35:29;;;;;;;16.90;11.98;;;;;;;27.13;100.00;93196.66;5070600;28;20044;-79
2023/08/20 08:37:55;;;;;;;18.90;12.38;;;;;;;27.22;100.00;93191.00;5070533;28;20036;-79
2023/08/20 08:40:21;;;;;;;20.33;12.68;;;;;;;27.15;100.00;93181.72;5058838;28;20032;-79
2023/08/20 08:42:52;;;;;;;21.83;13.02;;;;;;;26.95;100.00;93186.56;5074470;28;20044;-80
2023/08/20 08:45:19;;;;;;;16.15;11.23;;;;;;;26.94;100.00;93187.72;5073767;28;20055;-80
2023/08/20 08:47:46;;;;;;;17.83;10.80;;;;;;;27.30;100.00;93189.91;5063433;28;20115;-79
2023/08/20 08:50:12;;;;;;;23.52;12.75;;;;;;;27.39;100.00;93195.72;5066506;28;20037;-79
2023/08/20 08:52:39;;;;;;;15.32;10.38;;;;;;;27.37;100.00;93198.03;5073389;28;20448;-79
2023/08/20 08:55:08;;;;;;;21.08;11.70;;;;;;;27.26;100.00;93191.81;5073531;28;20474;-80
2023/08/20 08:57:35;;;;;;;18.17;11.57;;;;;;;27.26;100.00;93192.56;5072049;28;20075;-79
2023/08/20 09:00:01;;;;;;;22.42;11.25;;;;;;;27.30;100.00;93198.75;5075031;28;20086;-80
2023/08/20 09:02:26;;;;;;;17.42;12.52;;;;;;;27.20;100.00;93192.16;5061768;28;20041;-79
2023/08/20 09:04:52;;;;;;;20.35;12.75;;;;;;;27.23;100.00;93185.25;5067973;28;20509;-80
2023/08/20 09:07:18;;;;;;;28.48;14.68;;;;;;;27.27;100.00;93196.81;5051273;28;20025;-79
2023/08/20 09:09:45;;;;;;;23.63;15.80;;;;;;;27.49;100.00;93195.00;5069125;28;20111;-79
2023/08/20 09:12:16;;;;;;;20.02;14.15;;;;;;;27.54;100.00;93183.91;5076102;28;20048;-79
2023/08/20 09:14:52;;;;;;;18.98;11.85;;;;;;;27.61;100.00;93185.88;5074669;28;20386;-81
2023/08/20 09:17:19;;;;;;;17.35;13.23;;;;;;;27.63;100.00;93194.34;5050994;28;20090;-79
2023/08/20 09:19:45;;;;;;;19.10;14.05;;;;;;;27.72;100.00;93181.31;5068906;28;20031;-79
2023/08/20 09:22:15;;;;;;;18.63;12.70;;;;;;;28.00;100.00;93185.28;5070878;28;20058;-83
2023/08/20 09:24:52;;;;;;;23.33;14.02;;;;;;;27.92;100.00;93189.88;5063614;28;20048;-79
2023/08/20 09:27:19;;;;;;;26.20;13.30;;;;;;;27.78;100.00;93182.47;5060147;28;20040;-78
2023/08/20 09:29:53;;;;;;;22.02;13.13;;;;;;;27.82;100.00;93175.19;5063195;28;20035;-78
2023/08/20 09:32:21;;;;;;;21.63;13.98;;;;;;;27.91;100.00;93182.94;5067057;28;20137;-81
2023/08/20 09:34:51;;;;;;;22.38;14.95;;;;;;;27.80;100.00;93180.19;5045482;28;20040;-79
2023/08/20 09:37:19;;;;;;;21.98;14.95;;;;;;;27.81;100.00;93178.28;5061271;28;20498;-80
2023/08/20 09:39:47;;;;;;;21.42;13.75;;;;;;;27.97;100.00;93176.06;5064897;28;20024;-79
2023/08/20 09:42:14;;;;;;;26.17;15.27;;;;;;;27.84;100.00;93180.25;5066125;28;20240;-80
2023/08/20 09:44:42;;;;;;;22.02;13.43;;;;;;;27.89;100.00;93174.47;5069769;28;20029;-80
2023/08/20 09:47:14;;;;;;;21.63;14.20;;;;;;;27.97;100.00;93170.69;5068074;28;20032;-80
2023/08/20 09:49:46;;;;;;;18.35;13.20;;;;;;;28.01;100.00;93168.78;5061194;28;20037;-80
2023/08/20 09:52:16;;;;;;;19.83;13.57;;;;;;;28.02;100.00;93172.22;5069284;28;20037;-80
2023/08/20 09:54:50;;;;;;;20.85;13.48;;;;;;;28.33;100.00;93164.63;5052290;28;20036;-81
2023/08/20 09:57:34;;;;;;;22.48;14.68;;;;;;;28.12;100.00;93159.94;5060947;28;20419;-81
2023/08/20 10:00:00;;;;;;;22.33;15.40;;;;;;;28.03;100.00;93171.06;5064519;28;20033;-80
2023/08/20 10:02:26;;;;;;;20.35;15.13;;;;;;;28.22;100.00;93160.00;5049992;28;20044;-81
2023/08/20 10:04:53;;;;;;;30.55;14.20;;;;;;;28.19;100.00;93152.69;5063612;28;20029;-80
2023/08/20 10:07:21;;;;;;;20.55;13.60;;;;;;;28.38;100.00;93156.94;5069497;28;20028;-81
2023/08/20 10:09:50;;;;;;;24.35;15.20;;;;;;;28.59;100.00;93150.06;5073710;28;20354;-80
2023/08/20 10:12:16;;;;;;;21.55;15.15;;;;;;;28.70;100.00;93156.22;5073283;28;20056;-82
2023/08/20 10:14:42;;;;;;;20.15;14.00;;;;;;;28.43;100.00;93156.56;5051250;28;20033;-79
2023/08/20 10:17:08;;;;;;;25.42;13.80;;;;;;;28.65;100.00;93160.06;5069856;28;20033;-80
2023/08/20 10:19:38;;;;;;;18.13;14.65;;;;;;;28.74;100.00;93162.41;5071836;28;20067;-80
2023/08/20 10:22:07;;;;;;;23.38;13.10;;;;;;;28.73;100.00;93150.09;5051256;28;20036;-81
2023/08/20 10:24:49;;;;;;;20.95;13.77;;;;;;;28.89;100.00;93160.47;5072172;28;20036;-80
2023/08/20 10:27:28;;;;;;;23.63;14.60;;;;;;;28.75;100.00;93157.78;5065374;28;20055;-79
2023/08/20 10:29:54;;;;;;;19.27;13.27;;;;;;;28.62;100.00;93154.72;5072689;28;20062;-80
2023/08/20 10:32:20;;;;;;;23.40;14.25;;;;;;;28.71;100.00;93157.78;5071151;28;20028;-79
2023/08/20 10:34:53;;;;;;;19.60;13.23;;;;;;;28.39;100.00;93153.13;5056804;28;20044;-79
2023/08/20 10:37:28;;;;;;;21.90;13.95;;;;;;;28.48;100.00;93154.69;5072085;28;20025;-80
2023/08/20 10:39:58;;;;;;;19.85;14.25;;;;;;;28.58;100.00;93148.53;5077740;28;20043;-82
2023/08/20 10:42:28;;;;;;;20.10;14.35;;;;;;;28.51;100.00;93143.16;5054705;28;20552;-79
2023/08/20 10:45:10;;;;;;;24.98;15.90;;;;;;;28.51;100.00;93149.31;5053127;28;20082;-79
2023/08/20 10:47:45;;;;;;;18.38;13.27;;;;;;;28.59;100.00;93147.38;5052659;28;20040;-79
2023/08/20 10:50:15;;;;;;;18.35;13.80;;;;;;;28.66;100.00;93150.06;5071669;28;20028;-79
2023/08/20 10:52:46;;;;;;;20.15;15.02;;;;;;;28.67;100.00;93156.25;5066341;28;20060;-78
2023/08/20 10:55:14;;;;;;;21.10;16.60;;;;;;;28.50;100.00;93157.75;5071485;28;20127;-80
2023/08/20 10:57:41;;;;;;;23.75;15.77;;;;;;;28.47;100.00;93151.22;5070354;28;20021;-80
2023/08/20 11:00:11;;;;;;;20.13;14.73;;;;;;;28.69;100.00;93143.13;5065758;28;20517;-79
2023/08/20 11:02:38;;;;;;;26.88;15.38;;;;;;;28.72;100.00;93143.16;5072249;28;20039;-80
2023/08/20 11:05:16;;;;;;;17.48;13.23;;;;;;;28.97;100.00;93131.59;5064444;28;20021;-80
2023/08/20 11:07:42;;;;;;;24.23;14.77;;;;;;;29.13;100.00;93134.69;5055567;28;20056;-79
2023/08/20 11:10:08;;;;;;;21.77;14.55;;;;;;;29.32;100.00;93130.81;5071477;28;20070;-80
2023/08/20 11:12:33;;;;;;;19.73;14.77;;;;;;;29.26;98.88;93145.84;5062207;28;20471;-80